sensor_id;sensor_type;location;lat;lon;timestamp;P1;durP1;ratioP1;P2;durP2;ratioP2
8050;SDS011;4068;42.158;24.732;2023-04-03T00:01:00;4.32;;;2.72;;
8050;SDS011;4068;42.158;24.732;2023-04-03T00:03:26;3.40;;;3.10;;
8050;SDS011;4068;42.158;24.732;2023-04-03T00:05:52;3.50;;;2.95;;
8050;SDS011;4068;42.158;24.732;2023-04-03T00:08:17;4.05;;;2.80;;
8050;SDS011;4068;42.158;24.732;2023-04-03T00:10:43;3.20;;;2.90;;
8050;SDS011;4068;42.158;24.732;2023-04-03T00:13:08;7.90;;;3.40;;
8050;SDS011;4068;42.158;24.732;2023-04-03T00:15:34;2.65;;;2.45;;
8050;SDS011;4068;42.158;24.732;2023-04-03T00:18:01;3.78;;;2.88;;
8050;SDS011;4068;42.158;24.732;2023-04-03T00:20:27;3.67;;;2.78;;
8050;SDS011;4068;42.158;24.732;2023-04-03T00:22:52;3.95;;;2.65;;
8050;SDS011;4068;42.158;24.732;2023-04-03T00:25:18;6.55;;;3.00;;
8050;SDS011;4068;42.158;24.732;2023-04-03T00:27:44;3.85;;;2.85;;
8050;SDS011;4068;42.158;24.732;2023-04-03T00:30:10;3.20;;;2.58;;
8050;SDS011;4068;42.158;24.732;2023-04-03T00:32:38;2.55;;;2.35;;
8050;SDS011;4068;42.158;24.732;2023-04-03T00:35:04;2.80;;;2.60;;
8050;SDS011;4068;42.158;24.732;2023-04-03T00:37:30;3.72;;;2.83;;
8050;SDS011;4068;42.158;24.732;2023-04-03T00:39:55;6.75;;;2.70;;
8050;SDS011;4068;42.158;24.732;2023-04-03T00:42:21;3.33;;;2.60;;
8050;SDS011;4068;42.158;24.732;2023-04-03T00:47:12;4.65;;;2.60;;
8050;SDS011;4068;42.158;24.732;2023-04-03T00:49:40;3.60;;;2.83;;
8050;SDS011;4068;42.158;24.732;2023-04-03T00:52:08;3.10;;;2.80;;
8050;SDS011;4068;42.158;24.732;2023-04-03T00:54:38;5.45;;;3.05;;
8050;SDS011;4068;42.158;24.732;2023-04-03T00:57:06;3.58;;;2.80;;
8050;SDS011;4068;42.158;24.732;2023-04-03T00:59:34;2.75;;;2.55;;
8050;SDS011;4068;42.158;24.732;2023-04-03T01:02:05;3.13;;;2.83;;
8050;SDS011;4068;42.158;24.732;2023-04-03T01:04:33;3.10;;;2.70;;
8050;SDS011;4068;42.158;24.732;2023-04-03T01:07:01;3.03;;;2.70;;
8050;SDS011;4068;42.158;24.732;2023-04-03T01:09:29;2.97;;;2.67;;
8050;SDS011;4068;42.158;24.732;2023-04-03T01:12:16;4.07;;;2.67;;
8050;SDS011;4068;42.158;24.732;2023-04-03T01:14:44;3.10;;;2.75;;
8050;SDS011;4068;42.158;24.732;2023-04-03T01:25:38;3.42;;;3.13;;
8050;SDS011;4068;42.158;24.732;2023-04-03T01:28:09;3.65;;;3.00;;
8050;SDS011;4068;42.158;24.732;2023-04-03T01:30:41;6.43;;;3.10;;
8050;SDS011;4068;42.158;24.732;2023-04-03T01:33:12;3.58;;;3.10;;
8050;SDS011;4068;42.158;24.732;2023-04-03T01:35:38;4.28;;;2.90;;
8050;SDS011;4068;42.158;24.732;2023-04-03T01:38:03;3.20;;;2.90;;
8050;SDS011;4068;42.158;24.732;2023-04-03T01:40:29;3.17;;;2.88;;
8050;SDS011;4068;42.158;24.732;2023-04-03T01:42:55;2.85;;;2.65;;
8050;SDS011;4068;42.158;24.732;2023-04-03T01:45:20;3.25;;;2.90;;
8050;SDS011;4068;42.158;24.732;2023-04-03T01:47:46;3.10;;;2.80;;
8050;SDS011;4068;42.158;24.732;2023-04-03T01:50:11;3.45;;;3.15;;
8050;SDS011;4068;42.158;24.732;2023-04-03T01:52:37;3.45;;;2.80;;
8050;SDS011;4068;42.158;24.732;2023-04-03T01:55:02;3.58;;;3.25;;
8050;SDS011;4068;42.158;24.732;2023-04-03T01:57:28;4.13;;;3.10;;
8050;SDS011;4068;42.158;24.732;2023-04-03T01:59:53;4.32;;;3.13;;
8050;SDS011;4068;42.158;24.732;2023-04-03T02:02:18;5.63;;;2.88;;
8050;SDS011;4068;42.158;24.732;2023-04-03T02:04:45;3.92;;;3.25;;
8050;SDS011;4068;42.158;24.732;2023-04-03T02:07:11;4.05;;;3.42;;
8050;SDS011;4068;42.158;24.732;2023-04-03T02:09:36;8.15;;;3.67;;
8050;SDS011;4068;42.158;24.732;2023-04-03T02:12:02;5.72;;;3.50;;
8050;SDS011;4068;42.158;24.732;2023-04-03T02:14:28;5.57;;;3.63;;
8050;SDS011;4068;42.158;24.732;2023-04-03T02:16:53;3.40;;;3.10;;
8050;SDS011;4068;42.158;24.732;2023-04-03T02:19:19;6.47;;;3.38;;
8050;SDS011;4068;42.158;24.732;2023-04-03T02:21:44;4.43;;;3.50;;
8050;SDS011;4068;42.158;24.732;2023-04-03T02:24:10;3.95;;;3.22;;
8050;SDS011;4068;42.158;24.732;2023-04-03T02:26:35;3.38;;;3.08;;
8050;SDS011;4068;42.158;24.732;2023-04-03T02:29:01;3.70;;;3.10;;
8050;SDS011;4068;42.158;24.732;2023-04-03T02:31:26;4.45;;;3.20;;
8050;SDS011;4068;42.158;24.732;2023-04-03T02:33:52;4.65;;;3.55;;
8050;SDS011;4068;42.158;24.732;2023-04-03T02:36:17;5.15;;;3.80;;
8050;SDS011;4068;42.158;24.732;2023-04-03T02:38:42;5.25;;;3.95;;
8050;SDS011;4068;42.158;24.732;2023-04-03T02:41:09;8.38;;;4.30;;
8050;SDS011;4068;42.158;24.732;2023-04-03T02:43:37;6.05;;;4.60;;
8050;SDS011;4068;42.158;24.732;2023-04-03T02:46:02;6.47;;;4.15;;
8050;SDS011;4068;42.158;24.732;2023-04-03T02:48:28;6.47;;;4.28;;
8050;SDS011;4068;42.158;24.732;2023-04-03T02:50:53;6.88;;;4.95;;
8050;SDS011;4068;42.158;24.732;2023-04-03T02:53:19;7.05;;;4.20;;
8050;SDS011;4068;42.158;24.732;2023-04-03T02:55:45;5.60;;;4.07;;
8050;SDS011;4068;42.158;24.732;2023-04-03T02:58:11;10.30;;;5.13;;
8050;SDS011;4068;42.158;24.732;2023-04-03T03:00:36;9.63;;;4.65;;
8050;SDS011;4068;42.158;24.732;2023-04-03T03:03:02;8.50;;;5.60;;
8050;SDS011;4068;42.158;24.732;2023-04-03T03:05:28;14.20;;;5.00;;
8050;SDS011;4068;42.158;24.732;2023-04-03T03:07:53;17.60;;;6.07;;
8050;SDS011;4068;42.158;24.732;2023-04-03T03:10:19;5.03;;;3.50;;
8050;SDS011;4068;42.158;24.732;2023-04-03T03:12:45;4.57;;;3.70;;
8050;SDS011;4068;42.158;24.732;2023-04-03T03:15:11;5.32;;;3.42;;
8050;SDS011;4068;42.158;24.732;2023-04-03T03:17:37;5.55;;;3.75;;
8050;SDS011;4068;42.158;24.732;2023-04-03T03:20:03;5.10;;;3.88;;
8050;SDS011;4068;42.158;24.732;2023-04-03T03:22:30;5.60;;;3.80;;
8050;SDS011;4068;42.158;24.732;2023-04-03T03:24:55;9.85;;;3.90;;
8050;SDS011;4068;42.158;24.732;2023-04-03T03:27:20;4.55;;;3.50;;
8050;SDS011;4068;42.158;24.732;2023-04-03T03:29:46;4.95;;;3.90;;
8050;SDS011;4068;42.158;24.732;2023-04-03T03:32:12;4.90;;;3.50;;
8050;SDS011;4068;42.158;24.732;2023-04-03T03:34:37;5.47;;;3.90;;
8050;SDS011;4068;42.158;24.732;2023-04-03T03:37:03;7.47;;;4.53;;
8050;SDS011;4068;42.158;24.732;2023-04-03T03:39:28;7.65;;;4.63;;
8050;SDS011;4068;42.158;24.732;2023-04-03T03:41:54;6.45;;;4.35;;
8050;SDS011;4068;42.158;24.732;2023-04-03T03:44:20;7.88;;;4.47;;
8050;SDS011;4068;42.158;24.732;2023-04-03T03:46:46;6.05;;;4.10;;
8050;SDS011;4068;42.158;24.732;2023-04-03T03:49:11;5.43;;;4.45;;
8050;SDS011;4068;42.158;24.732;2023-04-03T03:51:37;7.03;;;4.90;;
8050;SDS011;4068;42.158;24.732;2023-04-03T03:54:04;8.85;;;5.03;;
8050;SDS011;4068;42.158;24.732;2023-04-03T03:56:30;6.43;;;4.60;;
8050;SDS011;4068;42.158;24.732;2023-04-03T03:58:55;10.02;;;5.75;;
8050;SDS011;4068;42.158;24.732;2023-04-03T04:01:21;17.08;;;5.75;;
8050;SDS011;4068;42.158;24.732;2023-04-03T04:03:48;12.25;;;5.55;;
8050;SDS011;4068;42.158;24.732;2023-04-03T04:06:13;9.18;;;5.95;;
8050;SDS011;4068;42.158;24.732;2023-04-03T04:08:39;10.75;;;6.18;;
8050;SDS011;4068;42.158;24.732;2023-04-03T04:11:04;7.20;;;4.53;;
8050;SDS011;4068;42.158;24.732;2023-04-03T04:13:30;8.60;;;5.95;;
8050;SDS011;4068;42.158;24.732;2023-04-03T04:15:55;8.98;;;6.18;;
8050;SDS011;4068;42.158;24.732;2023-04-03T04:18:21;12.35;;;6.22;;
8050;SDS011;4068;42.158;24.732;2023-04-03T04:20:47;13.55;;;6.88;;
8050;SDS011;4068;42.158;24.732;2023-04-03T04:23:13;10.13;;;6.20;;
8050;SDS011;4068;42.158;24.732;2023-04-03T04:25:39;8.52;;;5.55;;
8050;SDS011;4068;42.158;24.732;2023-04-03T04:28:05;11.77;;;5.50;;
8050;SDS011;4068;42.158;24.732;2023-04-03T04:30:30;9.80;;;5.78;;
8050;SDS011;4068;42.158;24.732;2023-04-03T04:32:56;13.38;;;6.50;;
8050;SDS011;4068;42.158;24.732;2023-04-03T04:35:21;8.18;;;5.53;;
8050;SDS011;4068;42.158;24.732;2023-04-03T04:37:47;15.88;;;4.90;;
8050;SDS011;4068;42.158;24.732;2023-04-03T04:40:12;7.15;;;5.45;;
8050;SDS011;4068;42.158;24.732;2023-04-03T04:42:37;6.78;;;5.55;;
8050;SDS011;4068;42.158;24.732;2023-04-03T04:45:03;10.75;;;6.03;;
8050;SDS011;4068;42.158;24.732;2023-04-03T04:47:29;10.73;;;6.47;;
8050;SDS011;4068;42.158;24.732;2023-04-03T04:49:54;9.40;;;5.93;;
8050;SDS011;4068;42.158;24.732;2023-04-03T04:52:20;13.45;;;6.55;;
8050;SDS011;4068;42.158;24.732;2023-04-03T04:54:47;8.63;;;6.15;;
8050;SDS011;4068;42.158;24.732;2023-04-03T04:57:12;10.18;;;6.10;;
8050;SDS011;4068;42.158;24.732;2023-04-03T04:59:37;13.52;;;7.10;;
8050;SDS011;4068;42.158;24.732;2023-04-03T05:02:03;10.90;;;6.18;;
8050;SDS011;4068;42.158;24.732;2023-04-03T05:04:28;9.93;;;6.47;;
8050;SDS011;4068;42.158;24.732;2023-04-03T05:06:54;11.23;;;6.78;;
8050;SDS011;4068;42.158;24.732;2023-04-03T05:09:19;16.00;;;7.63;;
8050;SDS011;4068;42.158;24.732;2023-04-03T05:11:46;9.95;;;6.65;;
8050;SDS011;4068;42.158;24.732;2023-04-03T05:14:11;9.80;;;5.80;;
8050;SDS011;4068;42.158;24.732;2023-04-03T05:16:37;12.30;;;5.60;;
8050;SDS011;4068;42.158;24.732;2023-04-03T05:19:03;13.63;;;8.32;;
8050;SDS011;4068;42.158;24.732;2023-04-03T05:21:28;16.45;;;7.57;;
8050;SDS011;4068;42.158;24.732;2023-04-03T05:23:57;18.65;;;8.88;;
8050;SDS011;4068;42.158;24.732;2023-04-03T05:26:24;13.75;;;8.27;;
8050;SDS011;4068;42.158;24.732;2023-04-03T05:28:51;17.15;;;7.60;;
8050;SDS011;4068;42.158;24.732;2023-04-03T05:31:16;20.40;;;8.25;;
8050;SDS011;4068;42.158;24.732;2023-04-03T05:33:42;25.05;;;9.32;;
8050;SDS011;4068;42.158;24.732;2023-04-03T05:36:07;21.33;;;9.73;;
8050;SDS011;4068;42.158;24.732;2023-04-03T05:38:33;20.33;;;9.68;;
8050;SDS011;4068;42.158;24.732;2023-04-03T05:40:59;20.15;;;8.60;;
8050;SDS011;4068;42.158;24.732;2023-04-03T05:43:24;21.10;;;8.02;;
8050;SDS011;4068;42.158;24.732;2023-04-03T05:45:50;15.80;;;8.20;;
8050;SDS011;4068;42.158;24.732;2023-04-03T05:48:17;17.90;;;7.65;;
8050;SDS011;4068;42.158;24.732;2023-04-03T05:50:42;18.67;;;7.43;;
8050;SDS011;4068;42.158;24.732;2023-04-03T05:53:15;15.32;;;7.18;;
8050;SDS011;4068;42.158;24.732;2023-04-03T05:55:47;17.58;;;7.70;;
8050;SDS011;4068;42.158;24.732;2023-04-03T05:58:13;17.17;;;8.30;;
8050;SDS011;4068;42.158;24.732;2023-04-03T06:00:38;20.45;;;8.15;;
8050;SDS011;4068;42.158;24.732;2023-04-03T06:03:05;14.15;;;7.55;;
8050;SDS011;4068;42.158;24.732;2023-04-03T06:05:31;18.23;;;7.95;;
8050;SDS011;4068;42.158;24.732;2023-04-03T06:07:56;14.20;;;6.90;;
8050;SDS011;4068;42.158;24.732;2023-04-03T06:10:22;19.95;;;7.70;;
8050;SDS011;4068;42.158;24.732;2023-04-03T06:12:48;15.32;;;7.70;;
8050;SDS011;4068;42.158;24.732;2023-04-03T06:15:13;22.63;;;8.80;;
8050;SDS011;4068;42.158;24.732;2023-04-03T06:17:40;21.67;;;8.70;;
8050;SDS011;4068;42.158;24.732;2023-04-03T06:22:50;18.95;;;8.93;;
8050;SDS011;4068;42.158;24.732;2023-04-03T06:25:15;18.75;;;9.57;;
8050;SDS011;4068;42.158;24.732;2023-04-03T06:27:43;19.90;;;10.30;;
8050;SDS011;4068;42.158;24.732;2023-04-03T06:30:09;26.80;;;12.23;;
8050;SDS011;4068;42.158;24.732;2023-04-03T06:32:35;20.52;;;11.43;;
8050;SDS011;4068;42.158;24.732;2023-04-03T06:35:01;21.00;;;10.20;;
8050;SDS011;4068;42.158;24.732;2023-04-03T06:37:27;17.98;;;8.02;;
8050;SDS011;4068;42.158;24.732;2023-04-03T06:39:54;15.00;;;8.02;;
8050;SDS011;4068;42.158;24.732;2023-04-03T06:42:19;8.93;;;6.35;;
8050;SDS011;4068;42.158;24.732;2023-04-03T06:44:46;12.68;;;6.82;;
8050;SDS011;4068;42.158;24.732;2023-04-03T06:47:15;10.80;;;7.22;;
8050;SDS011;4068;42.158;24.732;2023-04-03T06:49:41;14.15;;;7.75;;
8050;SDS011;4068;42.158;24.732;2023-04-03T06:52:07;8.57;;;5.45;;
8050;SDS011;4068;42.158;24.732;2023-04-03T06:54:33;10.40;;;5.60;;
8050;SDS011;4068;42.158;24.732;2023-04-03T06:56:58;10.32;;;7.03;;
8050;SDS011;4068;42.158;24.732;2023-04-03T06:59:24;14.75;;;6.10;;
8050;SDS011;4068;42.158;24.732;2023-04-03T07:01:50;16.40;;;6.75;;
8050;SDS011;4068;42.158;24.732;2023-04-03T07:04:16;8.98;;;5.18;;
8050;SDS011;4068;42.158;24.732;2023-04-03T07:06:41;8.23;;;4.93;;
8050;SDS011;4068;42.158;24.732;2023-04-03T07:09:08;8.15;;;5.82;;
8050;SDS011;4068;42.158;24.732;2023-04-03T07:11:34;16.02;;;4.65;;
8050;SDS011;4068;42.158;24.732;2023-04-03T07:14:01;21.63;;;5.85;;
8050;SDS011;4068;42.158;24.732;2023-04-03T07:16:27;8.82;;;4.32;;
8050;SDS011;4068;42.158;24.732;2023-04-03T07:18:52;13.25;;;5.00;;
8050;SDS011;4068;42.158;24.732;2023-04-03T07:21:17;12.93;;;5.45;;
8050;SDS011;4068;42.158;24.732;2023-04-03T07:23:43;10.65;;;4.47;;
8050;SDS011;4068;42.158;24.732;2023-04-03T07:26:08;13.23;;;5.18;;
8050;SDS011;4068;42.158;24.732;2023-04-03T07:28:34;7.53;;;4.47;;
8050;SDS011;4068;42.158;24.732;2023-04-03T07:31:03;11.90;;;6.18;;
8050;SDS011;4068;42.158;24.732;2023-04-03T07:33:32;15.98;;;6.15;;
8050;SDS011;4068;42.158;24.732;2023-04-03T07:35:58;16.67;;;8.50;;
8050;SDS011;4068;42.158;24.732;2023-04-03T07:38:25;7.00;;;5.20;;
8050;SDS011;4068;42.158;24.732;2023-04-03T07:40:51;7.32;;;4.18;;
8050;SDS011;4068;42.158;24.732;2023-04-03T07:43:18;6.38;;;4.35;;
8050;SDS011;4068;42.158;24.732;2023-04-03T07:45:45;7.13;;;4.75;;
8050;SDS011;4068;42.158;24.732;2023-04-03T07:48:14;12.02;;;4.30;;
8050;SDS011;4068;42.158;24.732;2023-04-03T07:50:40;10.77;;;5.40;;
8050;SDS011;4068;42.158;24.732;2023-04-03T07:53:06;6.53;;;4.55;;
8050;SDS011;4068;42.158;24.732;2023-04-03T07:55:32;9.43;;;5.65;;
8050;SDS011;4068;42.158;24.732;2023-04-03T07:57:58;9.48;;;4.90;;
8050;SDS011;4068;42.158;24.732;2023-04-03T08:00:24;7.88;;;4.68;;
8050;SDS011;4068;42.158;24.732;2023-04-03T08:02:50;6.40;;;4.30;;
8050;SDS011;4068;42.158;24.732;2023-04-03T08:05:20;7.03;;;4.70;;
8050;SDS011;4068;42.158;24.732;2023-04-03T08:07:46;6.82;;;4.60;;
8050;SDS011;4068;42.158;24.732;2023-04-03T08:10:13;10.27;;;4.80;;
8050;SDS011;4068;42.158;24.732;2023-04-03T08:12:39;7.57;;;5.65;;
8050;SDS011;4068;42.158;24.732;2023-04-03T08:15:05;8.43;;;4.65;;
8050;SDS011;4068;42.158;24.732;2023-04-03T08:17:32;5.03;;;3.92;;
8050;SDS011;4068;42.158;24.732;2023-04-03T08:19:57;4.93;;;4.05;;
8050;SDS011;4068;42.158;24.732;2023-04-03T08:22:23;13.70;;;6.40;;
8050;SDS011;4068;42.158;24.732;2023-04-03T08:24:48;12.02;;;4.63;;
8050;SDS011;4068;42.158;24.732;2023-04-03T08:27:14;9.60;;;4.93;;
8050;SDS011;4068;42.158;24.732;2023-04-03T08:29:40;9.05;;;5.32;;
8050;SDS011;4068;42.158;24.732;2023-04-03T08:32:05;9.77;;;4.40;;
8050;SDS011;4068;42.158;24.732;2023-04-03T08:34:31;6.45;;;4.10;;
8050;SDS011;4068;42.158;24.732;2023-04-03T08:36:59;6.88;;;4.43;;
8050;SDS011;4068;42.158;24.732;2023-04-03T08:39:28;13.68;;;5.68;;
8050;SDS011;4068;42.158;24.732;2023-04-03T08:41:57;11.68;;;6.07;;
8050;SDS011;4068;42.158;24.732;2023-04-03T08:47:44;19.50;;;7.72;;
8050;SDS011;4068;42.158;24.732;2023-04-03T08:50:41;16.23;;;7.72;;
8050;SDS011;4068;42.158;24.732;2023-04-03T08:53:30;21.00;;;7.90;;
8050;SDS011;4068;42.158;24.732;2023-04-03T08:55:58;20.77;;;7.97;;
8050;SDS011;4068;42.158;24.732;2023-04-03T08:58:30;13.75;;;6.78;;
8050;SDS011;4068;42.158;24.732;2023-04-03T09:01:16;10.75;;;6.38;;
8050;SDS011;4068;42.158;24.732;2023-04-03T09:03:46;9.88;;;6.05;;
8050;SDS011;4068;42.158;24.732;2023-04-03T09:06:21;9.40;;;5.85;;
8050;SDS011;4068;42.158;24.732;2023-04-03T09:22:46;11.27;;;5.60;;
8050;SDS011;4068;42.158;24.732;2023-04-03T09:25:15;6.47;;;4.57;;
8050;SDS011;4068;42.158;24.732;2023-04-03T09:27:45;14.25;;;4.70;;
8050;SDS011;4068;42.158;24.732;2023-04-03T09:30:21;10.80;;;5.45;;
8050;SDS011;4068;42.158;24.732;2023-04-03T09:32:50;10.18;;;4.88;;
8050;SDS011;4068;42.158;24.732;2023-04-03T09:35:27;7.45;;;5.60;;
8050;SDS011;4068;42.158;24.732;2023-04-03T09:37:59;11.52;;;5.55;;
8050;SDS011;4068;42.158;24.732;2023-04-03T09:42:57;10.27;;;4.50;;
8050;SDS011;4068;42.158;24.732;2023-04-03T09:45:31;9.25;;;3.97;;
8050;SDS011;4068;42.158;24.732;2023-04-03T09:50:30;4.72;;;3.70;;
8050;SDS011;4068;42.158;24.732;2023-04-03T09:52:55;5.88;;;4.03;;
8050;SDS011;4068;42.158;24.732;2023-04-03T09:55:22;13.63;;;4.65;;
8050;SDS011;4068;42.158;24.732;2023-04-03T09:58:03;8.00;;;4.00;;
8050;SDS011;4068;42.158;24.732;2023-04-03T10:03:00;10.50;;;4.97;;
8050;SDS011;4068;42.158;24.732;2023-04-03T10:05:27;5.20;;;3.60;;
8050;SDS011;4068;42.158;24.732;2023-04-03T10:10:35;6.40;;;4.38;;
8050;SDS011;4068;42.158;24.732;2023-04-03T10:15:31;7.75;;;4.43;;
8050;SDS011;4068;42.158;24.732;2023-04-03T10:18:06;5.90;;;4.60;;
8050;SDS011;4068;42.158;24.732;2023-04-03T10:20:53;5.55;;;4.30;;
8050;SDS011;4068;42.158;24.732;2023-04-03T10:23:26;6.32;;;4.25;;
8050;SDS011;4068;42.158;24.732;2023-04-03T10:29:32;11.50;;;5.07;;
8050;SDS011;4068;42.158;24.732;2023-04-03T10:34:46;13.02;;;6.03;;
8050;SDS011;4068;42.158;24.732;2023-04-03T10:37:23;9.27;;;4.75;;
8050;SDS011;4068;42.158;24.732;2023-04-03T10:53:44;10.57;;;5.28;;
8050;SDS011;4068;42.158;24.732;2023-04-03T11:01:54;13.15;;;5.70;;
8050;SDS011;4068;42.158;24.732;2023-04-03T11:04:24;5.28;;;4.78;;
8050;SDS011;4068;42.158;24.732;2023-04-03T11:07:03;6.85;;;4.63;;
8050;SDS011;4068;42.158;24.732;2023-04-03T11:09:35;9.25;;;4.60;;
8050;SDS011;4068;42.158;24.732;2023-04-03T11:15:05;7.90;;;5.03;;
8050;SDS011;4068;42.158;24.732;2023-04-03T11:17:38;9.50;;;5.70;;
8050;SDS011;4068;42.158;24.732;2023-04-03T11:20:23;13.48;;;5.65;;
8050;SDS011;4068;42.158;24.732;2023-04-03T11:23:02;10.95;;;6.25;;
8050;SDS011;4068;42.158;24.732;2023-04-03T11:25:29;7.50;;;5.03;;
8050;SDS011;4068;42.158;24.732;2023-04-03T11:27:58;6.22;;;5.03;;
8050;SDS011;4068;42.158;24.732;2023-04-03T11:30:33;7.28;;;4.45;;
8050;SDS011;4068;42.158;24.732;2023-04-03T11:36:05;7.15;;;5.32;;
8050;SDS011;4068;42.158;24.732;2023-04-03T11:38:33;8.18;;;5.05;;
8050;SDS011;4068;42.158;24.732;2023-04-03T11:41:04;6.40;;;4.88;;
8050;SDS011;4068;42.158;24.732;2023-04-03T11:43:32;8.65;;;4.78;;
8050;SDS011;4068;42.158;24.732;2023-04-03T11:45:59;9.85;;;5.32;;
8050;SDS011;4068;42.158;24.732;2023-04-03T11:53:30;5.93;;;4.68;;
8050;SDS011;4068;42.158;24.732;2023-04-03T12:04:17;6.15;;;5.47;;
8050;SDS011;4068;42.158;24.732;2023-04-03T12:09:23;12.25;;;7.45;;
8050;SDS011;4068;42.158;24.732;2023-04-03T12:11:49;14.85;;;7.63;;
8050;SDS011;4068;42.158;24.732;2023-04-03T12:14:15;8.70;;;7.00;;
8050;SDS011;4068;42.158;24.732;2023-04-03T12:16:42;7.03;;;6.30;;
8050;SDS011;4068;42.158;24.732;2023-04-03T12:22:15;7.82;;;5.90;;
8050;SDS011;4068;42.158;24.732;2023-04-03T12:24:45;11.75;;;6.38;;
8050;SDS011;4068;42.158;24.732;2023-04-03T12:27:23;7.40;;;5.97;;
8050;SDS011;4068;42.158;24.732;2023-04-03T12:32:34;8.25;;;6.25;;
8050;SDS011;4068;42.158;24.732;2023-04-03T12:43:09;13.88;;;8.57;;
8050;SDS011;4068;42.158;24.732;2023-04-03T12:48:33;12.02;;;8.13;;
8050;SDS011;4068;42.158;24.732;2023-04-03T12:54:38;8.70;;;7.25;;
8050;SDS011;4068;42.158;24.732;2023-04-03T12:57:13;9.23;;;6.80;;
8050;SDS011;4068;42.158;24.732;2023-04-03T12:59:43;9.73;;;7.22;;
8050;SDS011;4068;42.158;24.732;2023-04-03T13:04:52;14.73;;;10.02;;
8050;SDS011;4068;42.158;24.732;2023-04-03T13:07:23;11.45;;;7.10;;
8050;SDS011;4068;42.158;24.732;2023-04-03T13:10:00;8.73;;;7.38;;
8050;SDS011;4068;42.158;24.732;2023-04-03T13:12:28;10.13;;;6.55;;
8050;SDS011;4068;42.158;24.732;2023-04-03T13:14:54;10.98;;;6.60;;
8050;SDS011;4068;42.158;24.732;2023-04-03T13:17:25;12.25;;;8.52;;
8050;SDS011;4068;42.158;24.732;2023-04-03T13:19:52;10.10;;;7.18;;
8050;SDS011;4068;42.158;24.732;2023-04-03T13:22:24;16.33;;;9.70;;
8050;SDS011;4068;42.158;24.732;2023-04-03T13:24:55;86.72;;;33.42;;
8050;SDS011;4068;42.158;24.732;2023-04-03T13:27:40;18.48;;;10.18;;
8050;SDS011;4068;42.158;24.732;2023-04-03T13:30:19;12.35;;;8.95;;
8050;SDS011;4068;42.158;24.732;2023-04-03T13:32:48;98.05;;;34.38;;
8050;SDS011;4068;42.158;24.732;2023-04-03T13:35:27;14.10;;;9.88;;
8050;SDS011;4068;42.158;24.732;2023-04-03T13:37:56;14.25;;;8.45;;
8050;SDS011;4068;42.158;24.732;2023-04-03T13:40:23;13.57;;;9.85;;
8050;SDS011;4068;42.158;24.732;2023-04-03T13:42:58;11.55;;;8.30;;
8050;SDS011;4068;42.158;24.732;2023-04-03T13:45:26;10.57;;;7.90;;
8050;SDS011;4068;42.158;24.732;2023-04-03T13:48:39;14.20;;;9.25;;
8050;SDS011;4068;42.158;24.732;2023-04-03T13:51:02;13.48;;;8.77;;
8050;SDS011;4068;42.158;24.732;2023-04-03T13:53:30;13.90;;;8.70;;
8050;SDS011;4068;42.158;24.732;2023-04-03T13:58:29;12.55;;;10.23;;
8050;SDS011;4068;42.158;24.732;2023-04-03T14:06:22;15.25;;;10.55;;
8050;SDS011;4068;42.158;24.732;2023-04-03T14:08:48;17.63;;;11.57;;
8050;SDS011;4068;42.158;24.732;2023-04-03T14:11:15;13.80;;;10.18;;
8050;SDS011;4068;42.158;24.732;2023-04-03T14:13:44;16.70;;;10.65;;
8050;SDS011;4068;42.158;24.732;2023-04-03T14:16:18;13.50;;;9.57;;
8050;SDS011;4068;42.158;24.732;2023-04-03T14:18:50;15.48;;;9.73;;
8050;SDS011;4068;42.158;24.732;2023-04-03T14:21:17;15.05;;;9.50;;
8050;SDS011;4068;42.158;24.732;2023-04-03T14:23:44;14.98;;;10.25;;
8050;SDS011;4068;42.158;24.732;2023-04-03T14:26:15;11.70;;;9.02;;
8050;SDS011;4068;42.158;24.732;2023-04-03T14:28:43;11.80;;;8.68;;
8050;SDS011;4068;42.158;24.732;2023-04-03T14:31:10;15.32;;;10.20;;
8050;SDS011;4068;42.158;24.732;2023-04-03T14:33:37;18.05;;;10.05;;
8050;SDS011;4068;42.158;24.732;2023-04-03T14:36:36;15.50;;;10.20;;
8050;SDS011;4068;42.158;24.732;2023-04-03T14:38:55;16.58;;;10.15;;
8050;SDS011;4068;42.158;24.732;2023-04-03T14:41:26;15.50;;;9.55;;
8050;SDS011;4068;42.158;24.732;2023-04-03T14:43:52;12.80;;;9.82;;
8050;SDS011;4068;42.158;24.732;2023-04-03T14:48:47;15.93;;;10.30;;
8050;SDS011;4068;42.158;24.732;2023-04-03T14:51:13;20.48;;;10.75;;
8050;SDS011;4068;42.158;24.732;2023-04-03T14:53:40;13.60;;;9.48;;
8050;SDS011;4068;42.158;24.732;2023-04-03T14:56:17;16.85;;;11.48;;
8050;SDS011;4068;42.158;24.732;2023-04-03T14:58:47;15.15;;;10.65;;
8050;SDS011;4068;42.158;24.732;2023-04-03T15:01:15;16.13;;;11.55;;
8050;SDS011;4068;42.158;24.732;2023-04-03T15:03:41;16.90;;;11.35;;
8050;SDS011;4068;42.158;24.732;2023-04-03T15:06:08;19.15;;;11.63;;
8050;SDS011;4068;42.158;24.732;2023-04-03T15:08:35;17.42;;;12.18;;
8050;SDS011;4068;42.158;24.732;2023-04-03T15:11:01;27.45;;;13.38;;
8050;SDS011;4068;42.158;24.732;2023-04-03T15:13:26;23.05;;;12.93;;
8050;SDS011;4068;42.158;24.732;2023-04-03T15:15:52;21.48;;;13.07;;
8050;SDS011;4068;42.158;24.732;2023-04-03T15:18:19;20.88;;;12.45;;
8050;SDS011;4068;42.158;24.732;2023-04-03T15:20:46;20.80;;;13.38;;
8050;SDS011;4068;42.158;24.732;2023-04-03T15:23:13;21.48;;;12.95;;
8050;SDS011;4068;42.158;24.732;2023-04-03T15:25:41;20.48;;;13.25;;
8050;SDS011;4068;42.158;24.732;2023-04-03T15:28:09;18.35;;;12.77;;
8050;SDS011;4068;42.158;24.732;2023-04-03T15:30:42;21.05;;;13.43;;
8050;SDS011;4068;42.158;24.732;2023-04-03T15:33:08;25.85;;;14.27;;
8050;SDS011;4068;42.158;24.732;2023-04-03T15:35:33;30.77;;;17.88;;
8050;SDS011;4068;42.158;24.732;2023-04-03T15:37:59;21.50;;;12.95;;
8050;SDS011;4068;42.158;24.732;2023-04-03T15:40:24;21.60;;;11.70;;
8050;SDS011;4068;42.158;24.732;2023-04-03T15:42:50;17.15;;;10.68;;
8050;SDS011;4068;42.158;24.732;2023-04-03T15:45:16;18.95;;;11.93;;
8050;SDS011;4068;42.158;24.732;2023-04-03T15:47:41;16.70;;;10.27;;
8050;SDS011;4068;42.158;24.732;2023-04-03T15:50:07;18.30;;;10.13;;
8050;SDS011;4068;42.158;24.732;2023-04-03T15:52:33;19.38;;;10.50;;
8050;SDS011;4068;42.158;24.732;2023-04-03T15:54:59;13.77;;;9.27;;
8050;SDS011;4068;42.158;24.732;2023-04-03T15:57:24;15.25;;;9.60;;
8050;SDS011;4068;42.158;24.732;2023-04-03T15:59:51;17.10;;;9.25;;
8050;SDS011;4068;42.158;24.732;2023-04-03T16:02:17;16.38;;;9.18;;
8050;SDS011;4068;42.158;24.732;2023-04-03T16:04:43;17.60;;;8.98;;
8050;SDS011;4068;42.158;24.732;2023-04-03T16:07:08;14.80;;;8.95;;
8050;SDS011;4068;42.158;24.732;2023-04-03T16:09:34;15.27;;;9.35;;
8050;SDS011;4068;42.158;24.732;2023-04-03T16:12:00;15.55;;;8.88;;
8050;SDS011;4068;42.158;24.732;2023-04-03T16:14:27;18.20;;;9.43;;
8050;SDS011;4068;42.158;24.732;2023-04-03T16:16:54;20.73;;;11.50;;
8050;SDS011;4068;42.158;24.732;2023-04-03T16:19:20;20.65;;;11.32;;
8050;SDS011;4068;42.158;24.732;2023-04-03T16:21:45;22.25;;;11.40;;
8050;SDS011;4068;42.158;24.732;2023-04-03T16:24:11;19.35;;;10.75;;
8050;SDS011;4068;42.158;24.732;2023-04-03T16:26:37;25.42;;;13.07;;
8050;SDS011;4068;42.158;24.732;2023-04-03T16:29:02;21.55;;;11.00;;
8050;SDS011;4068;42.158;24.732;2023-04-03T16:31:28;23.38;;;12.60;;
8050;SDS011;4068;42.158;24.732;2023-04-03T16:33:54;18.13;;;11.63;;
8050;SDS011;4068;42.158;24.732;2023-04-03T16:36:21;21.27;;;11.27;;
8050;SDS011;4068;42.158;24.732;2023-04-03T16:38:46;21.95;;;10.50;;
8050;SDS011;4068;42.158;24.732;2023-04-03T16:41:11;15.43;;;9.48;;
8050;SDS011;4068;42.158;24.732;2023-04-03T16:43:37;16.88;;;10.35;;
8050;SDS011;4068;42.158;24.732;2023-04-03T16:46:02;18.17;;;11.25;;
8050;SDS011;4068;42.158;24.732;2023-04-03T16:48:29;18.85;;;10.80;;
8050;SDS011;4068;42.158;24.732;2023-04-03T16:50:55;14.63;;;9.68;;
8050;SDS011;4068;42.158;24.732;2023-04-03T16:53:21;13.60;;;9.85;;
8050;SDS011;4068;42.158;24.732;2023-04-03T16:55:47;12.57;;;9.60;;
8050;SDS011;4068;42.158;24.732;2023-04-03T16:58:13;16.30;;;9.43;;
8050;SDS011;4068;42.158;24.732;2023-04-03T17:00:39;13.57;;;8.98;;